createdAt,value
2022-08-02T04:35:25.281Z,15.60
2022-08-02T04:37:27.466Z,15.60
2022-08-02T04:39:29.198Z,15.70
2022-08-02T04:41:43.648Z,15.70
2022-08-02T04:43:45.907Z,15.70
2022-08-02T04:45:51.431Z,15.80
2022-08-02T04:48:01.873Z,15.90
2022-08-02T04:50:05.906Z,15.90
2022-08-02T04:52:07.866Z,16.00
2022-08-02T04:54:11.043Z,16.00
2022-08-02T04:56:12.712Z,16.10
2022-08-02T04:58:38.964Z,16.10
2022-08-02T05:00:36.879Z,16.20
2022-08-02T05:02:38.618Z,16.20
2022-08-02T05:04:40.393Z,16.20
2022-08-02T05:06:42.084Z,16.20
2022-08-02T05:08:43.780Z,16.30
2022-08-02T05:10:45.593Z,16.40
2022-08-02T05:12:47.346Z,16.50
2022-08-02T05:14:49.433Z,16.50
2022-08-02T05:16:51.481Z,16.60
2022-08-02T05:18:53.221Z,16.70
2022-08-02T05:20:58.128Z,16.80
2022-08-02T05:23:00.102Z,16.90
2022-08-02T05:25:01.814Z,17.10
2022-08-02T05:27:03.501Z,17.10
2022-08-02T05:29:23.433Z,17.20
2022-08-02T05:31:25.163Z,17.30
2022-08-02T05:33:27.166Z,17.30
2022-08-02T05:35:28.904Z,17.40
2022-08-02T05:37:32.389Z,17.60
2022-08-02T05:39:36.998Z,17.70
2022-08-02T05:41:56.974Z,17.70
2022-08-02T05:43:58.688Z,17.80
2022-08-02T05:46:00.609Z,17.80
2022-08-02T05:48:02.630Z,17.90
2022-08-02T05:50:10.268Z,17.90
2022-08-02T05:52:15.974Z,17.90
2022-08-02T05:54:24.900Z,17.90
2022-08-02T05:56:51.056Z,18.00
2022-08-02T05:59:24.776Z,18.00
2022-08-02T06:01:38.634Z,18.00
2022-08-02T06:03:52.834Z,18.10
2022-08-02T06:06:11.196Z,18.10
2022-08-02T06:08:14.318Z,18.20
2022-08-02T06:10:20.301Z,18.30
2022-08-02T06:12:25.390Z,18.30
2022-08-02T06:14:30.679Z,18.40
2022-08-02T06:16:33.141Z,18.40
2022-08-02T06:18:44.413Z,18.40
2022-08-02T06:20:50.192Z,18.50
2022-08-02T06:22:52.958Z,18.60
2022-08-02T06:24:56.233Z,18.70
2022-08-02T06:26:59.127Z,18.70
2022-08-02T06:29:01.369Z,18.80
2022-08-02T06:31:04.205Z,18.80
2022-08-02T06:33:05.897Z,18.90
2022-08-02T06:35:08.409Z,18.90
2022-08-02T06:37:17.762Z,19.00
2022-08-02T06:39:32.246Z,19.00
2022-08-02T06:41:42.314Z,19.00
2022-08-02T06:44:27.438Z,19.00
2022-08-02T06:46:57.051Z,19.00
2022-08-02T06:48:48.365Z,19.20
2022-08-02T06:50:50.110Z,19.30
2022-08-02T06:52:51.919Z,19.40
2022-08-02T06:54:53.590Z,19.40
2022-08-02T06:56:55.363Z,19.50
2022-08-02T06:58:57.219Z,19.60
2022-08-02T07:00:59.039Z,19.70
2022-08-02T07:03:00.760Z,19.70
2022-08-02T07:05:03.687Z,19.90
2022-08-02T07:07:05.601Z,20.30
2022-08-02T07:09:22.780Z,21.10
2022-08-02T07:11:24.707Z,22.20
2022-08-02T07:13:26.797Z,23.50
2022-08-02T07:15:28.598Z,24.40
2022-08-02T07:17:30.418Z,25.10
2022-08-02T07:19:37.852Z,25.90
2022-08-02T07:21:57.614Z,26.50
2022-08-02T07:24:01.632Z,27.00
2022-08-02T07:26:05.365Z,27.60
2022-08-02T07:28:16.812Z,28.10
2022-08-02T07:30:25.521Z,28.30
2022-08-02T07:32:29.620Z,28.70
2022-08-02T07:34:31.274Z,28.80
2022-08-02T07:36:33.323Z,28.80
2022-08-02T07:38:35.082Z,28.70
2022-08-02T07:40:39.287Z,29.00
2022-08-02T07:42:45.632Z,29.40
2022-08-02T07:44:49.297Z,30.10
2022-08-02T07:46:51.163Z,30.00
2022-08-02T07:48:54.881Z,30.10
2022-08-02T07:50:57.437Z,29.90
2022-08-02T07:52:59.090Z,29.70
2022-08-02T07:55:01.213Z,30.00
2022-08-02T07:57:02.970Z,30.00
2022-08-02T07:59:05.358Z,30.60
2022-08-02T08:01:07.196Z,30.70
2022-08-02T08:03:09.019Z,30.70
2022-08-02T08:05:11.040Z,30.40
2022-08-02T08:07:13.413Z,30.60
2022-08-02T08:09:15.330Z,30.60
2022-08-02T08:11:17.122Z,30.80
2022-08-02T08:13:18.826Z,30.90
2022-08-02T08:15:21.158Z,31.10
2022-08-02T08:17:23.138Z,31.00
2022-08-02T08:19:50.278Z,31.60
2022-08-02T08:21:46.718Z,31.20
2022-08-02T08:23:48.413Z,31.90
2022-08-02T08:25:50.273Z,31.80
2022-08-02T08:27:52.815Z,31.60
2022-08-02T08:29:54.580Z,31.70
2022-08-02T08:31:56.239Z,32.20
2022-08-02T08:34:04.469Z,32.40
2022-08-02T08:36:06.474Z,32.30
2022-08-02T08:38:08.570Z,32.10
2022-08-02T08:40:11.334Z,32.40
2022-08-02T08:42:13.388Z,32.20
2022-08-02T08:44:15.323Z,32.60
2022-08-02T08:46:34.538Z,33.20
2022-08-02T08:48:44.531Z,32.90
2022-08-02T08:51:12.918Z,33.10
2022-08-02T08:53:15.486Z,32.80
2022-08-02T08:55:17.951Z,32.70
2022-08-02T08:57:21.421Z,32.70
2022-08-02T08:59:23.313Z,32.50
2022-08-02T09:01:25.638Z,32.20
2022-08-02T09:03:47.350Z,32.30
2022-08-02T09:05:49.202Z,32.00
2022-08-02T09:07:52.793Z,32.30
2022-08-02T09:09:55.138Z,33.00
2022-08-02T09:12:16.833Z,32.80
2022-08-02T09:14:29.284Z,32.00
2022-08-02T09:16:36.764Z,32.00
2022-08-02T09:18:40.261Z,32.70
2022-08-02T09:20:54.058Z,32.60
2022-08-02T09:23:10.006Z,33.10
2022-08-02T09:25:15.881Z,33.10
2022-08-02T09:27:19.667Z,33.40
2022-08-02T09:29:24.990Z,33.60
2022-08-02T09:31:27.781Z,33.90
2022-08-02T09:33:29.760Z,33.80
2022-08-02T09:36:06.881Z,33.80
2022-08-02T09:38:12.039Z,33.20
2022-08-02T09:40:14.129Z,33.50
2022-08-02T09:42:16.138Z,33.50
2022-08-02T09:44:18.015Z,33.20
2022-08-02T09:46:25.809Z,33.20
2022-08-02T09:48:27.465Z,33.80
2022-08-02T09:50:29.410Z,33.70
2022-08-02T09:52:43.153Z,34.10
2022-08-02T09:54:45.591Z,34.50
2022-08-02T09:56:49.978Z,34.80
2022-08-02T09:58:53.438Z,35.00
2022-08-02T10:00:56.760Z,35.30
2022-08-02T10:03:22.283Z,35.20
2022-08-02T10:05:30.358Z,35.00
2022-08-02T10:07:37.403Z,34.50
2022-08-02T10:09:46.373Z,33.20
2022-08-02T10:11:49.678Z,31.90
2022-08-02T10:13:52.792Z,31.20
2022-08-02T10:15:56.849Z,30.20
2022-08-02T10:17:58.638Z,28.80
2022-08-02T10:20:04.614Z,28.30
2022-08-02T10:22:13.625Z,27.90
2022-08-02T10:24:17.030Z,27.60
2022-08-02T10:26:20.317Z,27.50
2022-08-02T10:28:33.487Z,27.60
2022-08-02T10:30:37.886Z,27.90
2022-08-02T10:32:43.842Z,27.90
2022-08-02T10:34:53.685Z,27.40
2022-08-02T10:36:56.078Z,27.30
2022-08-02T10:38:58.750Z,28.50
2022-08-02T10:41:00.603Z,29.60
2022-08-02T10:43:02.299Z,29.60
2022-08-02T10:45:12.445Z,29.60
2022-08-02T10:47:15.006Z,29.00
2022-08-02T10:49:38.643Z,28.30
2022-08-02T10:51:55.811Z,27.90
2022-08-02T10:54:10.024Z,28.00
2022-08-02T10:56:11.846Z,28.90
2022-08-02T10:58:25.833Z,29.00
2022-08-02T11:00:28.549Z,29.70
2022-08-02T11:02:43.299Z,31.50
2022-08-02T11:04:45.134Z,33.00
2022-08-02T11:07:17.343Z,33.10
2022-08-02T11:09:32.733Z,32.30
2022-08-02T11:12:01.162Z,31.00
2022-08-02T11:14:04.161Z,29.80
2022-08-02T11:16:11.303Z,29.20
2022-08-02T11:18:13.435Z,29.10
2022-08-02T11:20:16.810Z,29.80
2022-08-02T11:22:25.244Z,31.00
2022-08-02T11:24:36.488Z,31.90
2022-08-02T11:26:38.124Z,32.90
2022-08-02T11:28:39.871Z,31.90
2022-08-02T11:30:42.088Z,31.40
2022-08-02T11:32:44.442Z,31.00
2022-08-02T11:34:48.282Z,29.70
2022-08-02T11:36:51.746Z,28.90
2022-08-02T11:39:12.936Z,28.30
2022-08-02T11:41:46.140Z,28.00
2022-08-02T11:43:44.582Z,27.90
2022-08-02T11:45:46.674Z,27.80
2022-08-02T11:47:54.396Z,28.20
2022-08-02T11:50:07.162Z,29.40
2022-08-02T11:52:10.936Z,30.80
2022-08-02T11:54:13.256Z,31.20
2022-08-02T11:56:21.927Z,31.10
2022-08-02T11:58:27.087Z,30.90
2022-08-02T12:00:30.870Z,30.30
2022-08-02T12:02:33.779Z,29.60
2022-08-02T12:04:36.561Z,29.70
2022-08-02T12:06:38.352Z,29.90
2022-08-02T12:08:40.119Z,30.30
2022-08-02T12:10:51.287Z,30.80
2022-08-02T12:12:56.374Z,30.70
2022-08-02T12:14:58.284Z,30.40
2022-08-02T12:17:18.628Z,30.30
2022-08-02T12:19:26.508Z,31.10
2022-08-02T12:21:28.334Z,32.30
2022-08-02T12:23:30.366Z,33.20
2022-08-02T12:25:34.174Z,33.10
2022-08-02T12:27:40.465Z,32.70
2022-08-02T12:29:58.594Z,32.40
2022-08-02T12:32:01.658Z,32.40
2022-08-02T12:34:14.979Z,32.30
2022-08-02T12:36:24.397Z,31.60
2022-08-02T12:38:26.124Z,31.10
2022-08-02T12:40:31.948Z,31.20
2022-08-02T12:42:48.481Z,32.00
2022-08-02T12:44:58.827Z,33.20
2022-08-02T12:47:04.013Z,34.10
2022-08-02T12:49:18.627Z,35.00
2022-08-02T12:51:50.747Z,35.60
2022-08-02T12:54:10.562Z,36.40
2022-08-02T12:56:12.484Z,36.90
2022-08-02T12:58:14.197Z,37.30
2022-08-02T13:00:28.303Z,37.50
2022-08-02T13:02:30.851Z,37.50
2022-08-02T13:04:33.583Z,37.00
2022-08-02T13:06:50.739Z,36.30
2022-08-02T13:08:54.572Z,36.80
2022-08-02T13:10:56.274Z,37.60
2022-08-02T13:12:57.970Z,37.60
2022-08-02T13:14:59.718Z,38.30
2022-08-02T13:17:01.483Z,37.90
2022-08-02T13:19:03.201Z,36.40
2022-08-02T13:21:06.844Z,34.90
2022-08-02T13:23:08.749Z,33.40
2022-08-02T13:25:23.307Z,32.40
2022-08-02T13:27:26.859Z,32.40
2022-08-02T13:29:28.694Z,32.00
2022-08-02T13:31:36.552Z,31.90
2022-08-02T13:33:38.787Z,31.30
2022-08-02T13:35:41.490Z,30.80
2022-08-02T13:37:44.753Z,30.50
2022-08-02T13:40:05.556Z,30.30
2022-08-02T13:42:08.421Z,30.50
2022-08-02T13:44:17.801Z,30.60
2022-08-02T13:46:29.314Z,30.80
2022-08-02T13:48:31.830Z,30.70
2022-08-02T13:50:33.557Z,30.60
2022-08-02T13:52:35.283Z,31.10
2022-08-02T13:54:37.102Z,31.20
2022-08-02T13:56:38.802Z,31.10
2022-08-02T13:58:40.512Z,30.80
2022-08-02T14:00:42.257Z,30.60
2022-08-02T14:02:44.006Z,30.50
2022-08-02T14:04:46.025Z,31.00
2022-08-02T14:06:47.770Z,31.70
2022-08-02T14:08:49.666Z,32.40
2022-08-02T14:10:51.914Z,32.80
2022-08-02T14:12:56.515Z,33.10
2022-08-02T14:14:58.600Z,33.30
2022-08-02T14:17:01.820Z,33.40
2022-08-02T14:19:05.250Z,33.70
2022-08-02T14:21:12.443Z,33.50
2022-08-02T14:23:14.482Z,33.80
2022-08-02T14:25:16.217Z,34.00
2022-08-02T14:27:18.025Z,33.90
2022-08-02T14:29:19.726Z,34.30
2022-08-02T14:31:21.473Z,34.60
2022-08-02T14:33:23.381Z,34.50
2022-08-02T14:35:25.091Z,34.50
2022-08-02T14:37:26.786Z,34.60
2022-08-02T14:39:28.449Z,34.00
2022-08-02T14:41:58.302Z,33.50
2022-08-02T14:44:06.014Z,33.70
2022-08-02T14:46:07.819Z,34.40
2022-08-02T14:48:12.046Z,34.90
2022-08-02T14:50:14.448Z,35.50
2022-08-02T14:52:16.892Z,35.50
2022-08-02T14:54:18.629Z,35.60
2022-08-02T14:56:20.738Z,35.40
2022-08-02T14:58:22.465Z,35.50
2022-08-02T15:00:24.265Z,35.30
2022-08-02T15:02:26.939Z,35.40
2022-08-02T15:04:29.073Z,35.80
2022-08-02T15:06:39.042Z,35.10
2022-08-02T15:08:41.154Z,34.70
2022-08-02T15:10:42.847Z,34.40
2022-08-02T15:12:44.504Z,33.60
2022-08-02T15:14:46.186Z,33.60
2022-08-02T15:16:56.545Z,33.90
2022-08-02T15:18:59.665Z,34.20
2022-08-02T15:21:01.361Z,33.90
2022-08-02T15:23:10.519Z,33.70
2022-08-02T15:25:15.016Z,34.00
2022-08-02T15:27:17.013Z,33.70
2022-08-02T15:29:19.181Z,33.90
2022-08-02T15:31:30.316Z,34.10
2022-08-02T15:33:35.300Z,34.10
2022-08-02T15:35:36.994Z,34.10
2022-08-02T15:37:41.476Z,33.90
2022-08-02T15:39:43.990Z,34.00
2022-08-02T15:41:45.771Z,34.20
2022-08-02T15:44:00.256Z,34.10
2022-08-02T15:46:03.461Z,33.80
2022-08-02T15:48:05.797Z,33.70
2022-08-02T15:50:07.855Z,33.90
2022-08-02T15:52:12.805Z,34.30
2022-08-02T15:54:14.621Z,34.50
2022-08-02T15:56:16.281Z,34.80
2022-08-02T15:58:23.913Z,34.70
2022-08-02T16:00:25.617Z,34.70
2022-08-02T16:02:27.422Z,34.30
2022-08-02T16:04:29.157Z,34.20
2022-08-02T16:06:30.870Z,34.20
2022-08-02T16:08:32.510Z,33.90
2022-08-02T16:10:34.510Z,33.90
2022-08-02T16:12:36.208Z,33.90
2022-08-02T16:14:37.968Z,34.20
2022-08-02T16:16:40.296Z,34.40
2022-08-02T16:18:42.070Z,34.30
2022-08-02T16:20:43.757Z,34.40
2022-08-02T16:22:45.440Z,34.30
2022-08-02T16:24:47.406Z,33.90
2022-08-02T16:26:49.494Z,34.00
2022-08-02T16:28:54.751Z,34.10
2022-08-02T16:31:10.440Z,34.00
2022-08-02T16:33:13.230Z,33.80
2022-08-02T16:35:15.197Z,33.80
2022-08-02T16:37:16.853Z,33.70
2022-08-02T16:39:18.575Z,33.60
2022-08-02T16:41:20.572Z,33.30
2022-08-02T16:43:22.332Z,33.40
2022-08-02T16:45:24.162Z,33.50
2022-08-02T16:47:42.768Z,33.60
2022-08-02T16:50:04.206Z,33.60
2022-08-02T16:52:09.437Z,33.50
2022-08-02T16:54:11.357Z,33.80
2022-08-02T16:56:13.046Z,33.20
2022-08-02T16:58:16.606Z,33.10
2022-08-02T17:00:18.750Z,33.10
2022-08-02T17:02:20.406Z,33.20
2022-08-02T17:04:27.386Z,33.00
2022-08-02T17:06:30.436Z,32.90
2022-08-02T17:08:32.495Z,32.20
2022-08-02T17:10:34.619Z,31.90
2022-08-02T17:12:37.681Z,32.00
2022-08-02T17:14:54.667Z,31.90
2022-08-02T17:16:57.513Z,32.00
2022-08-02T17:18:59.955Z,32.20
2022-08-02T17:21:04.701Z,32.40
2022-08-02T17:23:06.719Z,32.50
2022-08-02T17:25:10.941Z,32.40
2022-08-02T17:27:13.378Z,32.10
2022-08-02T17:29:18.121Z,31.80
2022-08-02T17:31:20.064Z,31.50
2022-08-02T17:33:31.638Z,31.00
2022-08-02T17:35:52.042Z,30.70
2022-08-02T17:38:00.120Z,30.10
2022-08-02T17:40:02.754Z,29.50
2022-08-02T17:42:06.374Z,28.80
2022-08-02T17:44:08.591Z,28.50
2022-08-02T17:46:10.610Z,28.10
2022-08-02T17:50:34.811Z,27.40
2022-08-02T17:52:51.813Z,27.10
2022-08-02T17:54:55.067Z,26.90
2022-08-02T17:56:56.775Z,26.60
2022-08-02T17:59:20.890Z,26.40
2022-08-02T18:01:24.163Z,26.20
2022-08-02T18:03:26.090Z,26.00
2022-08-02T18:05:39.267Z,25.90
2022-08-02T18:07:50.107Z,25.80
2022-08-02T18:09:55.273Z,25.60
2022-08-02T18:11:57.929Z,25.50
2022-08-02T18:13:59.666Z,25.30
2022-08-02T18:16:02.238Z,25.20
2022-08-02T18:18:05.633Z,25.10
2022-08-02T18:20:10.927Z,25.00
2022-08-02T18:22:13.754Z,24.90
2022-08-02T18:24:16.176Z,24.80
2022-08-02T18:26:20.780Z,24.70
2022-08-02T18:28:26.567Z,24.60
2022-08-02T18:30:28.706Z,24.50
2022-08-02T18:33:55.388Z,24.40
2022-08-02T18:34:53.357Z,24.30
2022-08-02T18:36:55.082Z,24.20
2022-08-02T18:38:57.134Z,24.20
2022-08-02T18:41:02.838Z,24.10
2022-08-02T18:43:07.048Z,24.00
2022-08-02T18:45:10.169Z,23.90
2022-08-02T18:47:22.657Z,23.80
2022-08-02T18:49:25.482Z,23.70
2022-08-02T18:51:36.569Z,23.60
2022-08-02T18:53:41.418Z,23.40
2022-08-02T18:56:03.585Z,23.40
2022-08-02T18:58:18.850Z,23.30
2022-08-02T19:00:25.793Z,23.20
2022-08-02T19:02:28.206Z,23.10
2022-08-02T19:04:30.049Z,23.10
2022-08-02T19:06:32.045Z,23.00
2022-08-02T19:08:34.916Z,23.00
2022-08-02T19:10:39.022Z,22.90
2022-08-02T19:12:51.688Z,22.90
2022-08-02T19:14:53.459Z,22.90
2022-08-02T19:16:59.819Z,22.80
2022-08-02T19:19:03.708Z,22.80
2022-08-02T19:21:07.367Z,22.80
2022-08-02T19:23:10.459Z,22.80
2022-08-02T19:25:17.846Z,22.70
2022-08-02T19:27:31.989Z,22.70
2022-08-02T19:29:43.301Z,22.60
2022-08-02T19:32:02.232Z,22.50
2022-08-02T19:34:07.520Z,22.50
2022-08-02T19:36:09.767Z,22.40
2022-08-02T19:38:13.723Z,22.30
2022-08-02T19:40:20.546Z,22.30
2022-08-02T19:42:22.692Z,22.20
2022-08-02T19:44:29.488Z,22.10
2022-08-02T19:46:31.516Z,22.10
2022-08-02T19:48:33.211Z,22.00
2022-08-02T19:50:34.883Z,22.00
2022-08-02T19:52:36.541Z,21.90
2022-08-02T19:54:54.884Z,21.90
2022-08-02T19:56:59.011Z,21.80
2022-08-02T19:59:00.796Z,21.80
2022-08-02T20:01:16.779Z,21.70
2022-08-02T20:03:19.558Z,21.70
2022-08-02T20:05:41.332Z,21.70
2022-08-02T20:07:55.092Z,21.60
2022-08-02T20:09:58.202Z,21.60
2022-08-02T20:11:59.915Z,21.60
2022-08-02T20:14:03.791Z,21.60
2022-08-02T20:16:06.166Z,21.60
2022-08-02T20:18:09.346Z,21.60
2022-08-02T20:20:12.081Z,21.60
2022-08-02T20:22:15.989Z,21.50
2022-08-02T20:24:18.260Z,21.50
2022-08-02T20:26:20.208Z,21.40
2022-08-02T20:28:24.102Z,21.40
2022-08-02T20:30:26.326Z,21.30
2022-08-02T20:32:28.261Z,21.30
2022-08-02T20:34:30.223Z,21.20
2022-08-02T20:36:32.483Z,21.20
2022-08-02T20:38:34.415Z,21.20
2022-08-02T20:40:36.971Z,21.10
2022-08-02T20:42:39.193Z,21.10
2022-08-02T20:44:40.906Z,21.10
2022-08-02T20:46:44.146Z,21.10
2022-08-02T20:48:45.863Z,21.10
2022-08-02T20:50:54.461Z,21.10
2022-08-02T20:52:56.559Z,21.10
2022-08-02T20:54:58.397Z,21.10
2022-08-02T20:57:00.301Z,21.10
2022-08-02T20:59:15.480Z,21.10
2022-08-02T21:01:18.045Z,21.10
2022-08-02T21:03:23.281Z,21.20
2022-08-02T21:05:26.742Z,21.20
2022-08-02T21:07:47.863Z,21.20
2022-08-02T21:09:55.203Z,21.20
2022-08-02T21:11:57.342Z,21.20
2022-08-02T21:14:07.837Z,21.20
2022-08-02T21:16:13.689Z,21.10
2022-08-02T21:18:25.278Z,21.20
2022-08-02T21:20:42.235Z,21.10
2022-08-02T21:22:44.721Z,21.20
2022-08-02T21:24:47.461Z,21.20
2022-08-02T21:26:49.239Z,21.20
2022-08-02T21:28:54.164Z,21.20
2022-08-02T21:30:56.859Z,21.20
2022-08-02T21:32:58.821Z,21.20
2022-08-02T21:35:02.545Z,21.20
2022-08-02T21:37:10.129Z,21.20
2022-08-02T21:39:12.608Z,21.20
2022-08-02T21:41:14.490Z,21.20
2022-08-02T21:43:21.656Z,21.20
2022-08-02T21:45:37.428Z,21.20
2022-08-02T21:47:55.542Z,21.20
2022-08-02T21:50:13.665Z,21.20
2022-08-02T21:52:19.872Z,21.30
2022-08-02T21:54:27.199Z,21.30
2022-08-02T21:56:30.021Z,21.30
2022-08-02T21:58:33.922Z,21.20
2022-08-02T22:00:36.469Z,21.20
2022-08-02T22:02:38.223Z,21.20
2022-08-02T22:04:41.475Z,21.10
2022-08-02T22:06:49.549Z,21.10
2022-08-02T22:08:51.705Z,21.10
2022-08-02T22:11:03.154Z,21.10
2022-08-02T22:13:05.406Z,21.10
2022-08-02T22:15:16.293Z,21.10
2022-08-02T22:17:50.938Z,21.10
2022-08-02T22:19:54.432Z,21.10
2022-08-02T22:21:58.942Z,21.10
2022-08-02T22:24:00.905Z,21.10
2022-08-02T22:26:02.653Z,21.00
2022-08-02T22:28:35.572Z,21.00
2022-08-02T22:30:31.466Z,21.10
2022-08-02T22:32:51.858Z,21.00
2022-08-02T22:34:54.494Z,21.00
2022-08-02T22:36:56.377Z,21.00
2022-08-02T22:38:59.128Z,21.00
2022-08-02T22:41:00.919Z,20.90
2022-08-02T22:43:02.835Z,21.00
2022-08-02T22:45:05.117Z,21.00
2022-08-02T22:47:14.055Z,21.00
2022-08-02T22:49:18.656Z,21.00
2022-08-02T22:51:39.245Z,21.00
2022-08-02T22:53:42.532Z,21.00
2022-08-02T22:55:44.493Z,21.00
2022-08-02T22:57:56.451Z,21.00
2022-08-02T22:58:40.624Z,27.70
2022-08-02T23:00:00.473Z,21.00
2022-08-02T23:02:05.491Z,21.00
2022-08-02T23:04:07.236Z,21.00
2022-08-02T23:06:09.614Z,20.90
2022-08-02T23:08:11.438Z,20.90
2022-08-02T23:10:13.230Z,20.90
2022-08-02T23:12:19.191Z,21.00
2022-08-02T23:14:21.242Z,21.00
2022-08-02T23:16:46.455Z,20.90
2022-08-02T23:19:06.943Z,20.90
2022-08-02T23:21:08.750Z,20.90
2022-08-02T23:23:11.767Z,20.90
2022-08-02T23:25:13.877Z,20.90
2022-08-02T23:27:15.914Z,20.80
2022-08-02T23:29:17.752Z,20.80
2022-08-02T23:31:29.661Z,20.70
2022-08-02T23:33:31.410Z,20.70
2022-08-02T23:35:33.327Z,20.70
2022-08-02T23:37:59.888Z,20.60
2022-08-02T23:39:57.319Z,20.60
2022-08-02T23:41:59.421Z,20.60
2022-08-02T23:44:13.475Z,20.60
2022-08-02T23:46:16.111Z,20.60
2022-08-02T23:48:17.810Z,20.60
2022-08-02T23:50:20.006Z,20.70
2022-08-02T23:52:21.865Z,20.70
2022-08-02T23:54:25.222Z,20.70
2022-08-02T23:56:27.031Z,20.70
2022-08-02T23:58:32.910Z,20.80
